sensor_id;sensor_type;location;lat;lon;timestamp;pressure;altitude;pressure_sealevel;temperature;humidity
41800;BME280;27468;47.460;19.034;2022-12-18T00:01:04;101822.91;;;-2.10;79.42
41800;BME280;27468;47.460;19.034;2022-12-18T00:03:35;101835.84;;;-2.10;79.11
41800;BME280;27468;47.460;19.034;2022-12-18T00:06:01;101766.38;;;-2.52;79.05
41800;BME280;27468;47.460;19.034;2022-12-18T00:08:27;101830.25;;;-2.17;78.97
41800;BME280;27468;47.460;19.034;2022-12-18T00:10:53;101836.16;;;-2.20;79.40
41800;BME280;27468;47.460;19.034;2022-12-18T00:13:19;101776.66;;;-2.69;79.83
41800;BME280;27468;47.460;19.034;2022-12-18T00:15:44;101790.59;;;-2.65;80.02
41800;BME280;27468;47.460;19.034;2022-12-18T00:18:09;101830.63;;;-2.42;80.39
41800;BME280;27468;47.460;19.034;2022-12-18T00:20:36;101865.09;;;-2.25;80.44
41800;BME280;27468;47.460;19.034;2022-12-18T00:23:02;101862.94;;;-2.34;80.54
41800;BME280;27468;47.460;19.034;2022-12-18T00:25:27;101867.84;;;-2.39;80.43
41800;BME280;27468;47.460;19.034;2022-12-18T00:27:53;101875.50;;;-2.40;80.63
41800;BME280;27468;47.460;19.034;2022-12-18T00:30:18;101887.69;;;-2.38;80.48
41800;BME280;27468;47.460;19.034;2022-12-18T00:32:43;101828.91;;;-2.73;80.61
41800;BME280;27468;47.460;19.034;2022-12-18T00:35:09;101821.88;;;-2.75;80.45
41800;BME280;27468;47.460;19.034;2022-12-18T00:37:34;101884.84;;;-2.42;80.61
41800;BME280;27468;47.460;19.034;2022-12-18T00:40:00;101814.50;;;-2.84;80.76
41800;BME280;27468;47.460;19.034;2022-12-18T00:42:25;101840.56;;;-2.79;81.25
41800;BME280;27468;47.460;19.034;2022-12-18T00:45:09;101891.19;;;-2.52;81.79
41800;BME280;27468;47.460;19.034;2022-12-18T00:47:34;101878.56;;;-2.62;81.73
41800;BME280;27468;47.460;19.034;2022-12-18T00:50:00;101908.63;;;-2.48;82.08
41800;BME280;27468;47.460;19.034;2022-12-18T00:52:25;101899.31;;;-2.60;82.08
41800;BME280;27468;47.460;19.034;2022-12-18T00:54:51;101890.13;;;-2.70;82.09
41800;BME280;27468;47.460;19.034;2022-12-18T00:57:16;101923.97;;;-2.51;81.97
41800;BME280;27468;47.460;19.034;2022-12-18T00:59:41;101907.66;;;-2.64;82.06
41800;BME280;27468;47.460;19.034;2022-12-18T01:02:07;101832.84;;;-3.09;82.35
41800;BME280;27468;47.460;19.034;2022-12-18T01:04:32;101892.63;;;-2.86;82.61
41800;BME280;27468;47.460;19.034;2022-12-18T01:06:58;101942.22;;;-2.62;82.67
41800;BME280;27468;47.460;19.034;2022-12-18T01:09:23;101909.28;;;-2.81;82.48
41800;BME280;27468;47.460;19.034;2022-12-18T01:11:49;101868.72;;;-2.98;82.12
41800;BME280;27468;47.460;19.034;2022-12-18T01:14:15;101905.72;;;-2.83;81.86
41800;BME280;27468;47.460;19.034;2022-12-18T01:16:40;101855.19;;;-3.09;81.85
41800;BME280;27468;47.460;19.034;2022-12-18T01:19:06;101940.78;;;-2.72;82.18
41800;BME280;27468;47.460;19.034;2022-12-18T01:21:31;101911.88;;;-2.96;81.87
41800;BME280;27468;47.460;19.034;2022-12-18T01:23:57;101964.09;;;-2.71;81.93
41800;BME280;27468;47.460;19.034;2022-12-18T01:26:23;101906.44;;;-3.01;82.19
41800;BME280;27468;47.460;19.034;2022-12-18T01:28:49;101897.25;;;-3.10;82.25
41800;BME280;27468;47.460;19.034;2022-12-18T01:31:20;101953.59;;;-2.74;82.14
41800;BME280;27468;47.460;19.034;2022-12-18T01:33:46;101959.38;;;-2.78;82.20
41800;BME280;27468;47.460;19.034;2022-12-18T01:36:22;101971.66;;;-2.74;82.22
41800;BME280;27468;47.460;19.034;2022-12-18T01:38:48;101919.69;;;-2.94;81.66
41800;BME280;27468;47.460;19.034;2022-12-18T01:41:17;101902.41;;;-3.10;81.89
41800;BME280;27468;47.460;19.034;2022-12-18T01:46:11;101953.25;;;-2.94;82.08
41800;BME280;27468;47.460;19.034;2022-12-18T01:48:38;101963.56;;;-2.94;82.12
41800;BME280;27468;47.460;19.034;2022-12-18T01:51:06;101941.22;;;-3.09;82.41
41800;BME280;27468;47.460;19.034;2022-12-18T01:53:32;101922.22;;;-3.24;82.46
41800;BME280;27468;47.460;19.034;2022-12-18T01:55:58;101976.56;;;-2.93;82.60
41800;BME280;27468;47.460;19.034;2022-12-18T01:58:32;101983.94;;;-2.99;82.61
41800;BME280;27468;47.460;19.034;2022-12-18T02:01:03;101944.03;;;-3.19;82.72
41800;BME280;27468;47.460;19.034;2022-12-18T02:03:28;101986.59;;;-2.97;82.77
41800;BME280;27468;47.460;19.034;2022-12-18T02:14:41;101941.69;;;-3.29;82.38
41800;BME280;27468;47.460;19.034;2022-12-18T02:17:11;101987.66;;;-3.09;82.34
41800;BME280;27468;47.460;19.034;2022-12-18T02:22:29;102004.47;;;-3.01;82.31
41800;BME280;27468;47.460;19.034;2022-12-18T02:28:00;101974.38;;;-3.15;82.65
41800;BME280;27468;47.460;19.034;2022-12-18T02:30:30;102019.50;;;-3.08;82.18
41800;BME280;27468;47.460;19.034;2022-12-18T02:32:57;101946.69;;;-3.45;82.52
41800;BME280;27468;47.460;19.034;2022-12-18T02:35:27;101971.47;;;-3.34;82.35
41800;BME280;27468;47.460;19.034;2022-12-18T02:37:54;102017.44;;;-3.14;82.32
41800;BME280;27468;47.460;19.034;2022-12-18T02:40:22;101963.84;;;-3.46;82.07
41800;BME280;27468;47.460;19.034;2022-12-18T02:42:48;101989.69;;;-3.31;81.95
41800;BME280;27468;47.460;19.034;2022-12-18T02:45:14;101993.28;;;-3.29;81.89
41800;BME280;27468;47.460;19.034;2022-12-18T02:47:42;102003.38;;;-3.32;81.84
41800;BME280;27468;47.460;19.034;2022-12-18T03:03:20;102046.50;;;-3.16;81.99
41800;BME280;27468;47.460;19.034;2022-12-18T03:06:03;102023.94;;;-3.34;82.08
41800;BME280;27468;47.460;19.034;2022-12-18T03:08:39;102065.25;;;-3.19;82.24
41800;BME280;27468;47.460;19.034;2022-12-18T03:11:12;102064.38;;;-3.19;82.45
41800;BME280;27468;47.460;19.034;2022-12-18T03:13:43;102058.41;;;-3.18;82.37
41800;BME280;27468;47.460;19.034;2022-12-18T03:16:34;101992.97;;;-3.61;82.54
41800;BME280;27468;47.460;19.034;2022-12-18T03:19:09;102044.56;;;-3.34;82.55
41800;BME280;27468;47.460;19.034;2022-12-18T03:21:44;102044.38;;;-3.37;82.35
41800;BME280;27468;47.460;19.034;2022-12-18T03:24:11;101997.03;;;-3.65;82.48
41800;BME280;27468;47.460;19.034;2022-12-18T03:26:40;102083.81;;;-3.24;82.48
41800;BME280;27468;47.460;19.034;2022-12-18T03:29:30;102086.50;;;-3.23;82.55
41800;BME280;27468;47.460;19.034;2022-12-18T03:35:07;102092.75;;;-3.33;82.77
41800;BME280;27468;47.460;19.034;2022-12-18T03:37:34;102044.03;;;-3.56;82.84
41800;BME280;27468;47.460;19.034;2022-12-18T03:40:00;102099.19;;;-3.26;82.72
41800;BME280;27468;47.460;19.034;2022-12-18T03:42:29;102113.78;;;-3.26;83.03
41800;BME280;27468;47.460;19.034;2022-12-18T03:47:58;102108.72;;;-3.25;82.94
41800;BME280;27468;47.460;19.034;2022-12-18T03:50:56;102112.09;;;-3.26;83.15
41800;BME280;27468;47.460;19.034;2022-12-18T03:56:15;102108.81;;;-3.23;82.65
41800;BME280;27468;47.460;19.034;2022-12-18T03:58:43;102050.97;;;-3.55;82.67
41800;BME280;27468;47.460;19.034;2022-12-18T04:01:12;102080.78;;;-3.45;82.86
41800;BME280;27468;47.460;19.034;2022-12-18T04:03:41;102085.75;;;-3.48;82.71
41800;BME280;27468;47.460;19.034;2022-12-18T04:06:07;102111.13;;;-3.41;82.63
41800;BME280;27468;47.460;19.034;2022-12-18T04:08:34;102113.34;;;-3.47;82.80
41800;BME280;27468;47.460;19.034;2022-12-18T04:11:01;102091.41;;;-3.54;82.83
41800;BME280;27468;47.460;19.034;2022-12-18T04:13:33;102046.31;;;-3.87;82.37
41800;BME280;27468;47.460;19.034;2022-12-18T04:16:00;102057.03;;;-3.81;82.60
41800;BME280;27468;47.460;19.034;2022-12-18T04:18:26;102126.38;;;-3.44;82.26
41800;BME280;27468;47.460;19.034;2022-12-18T04:20:51;102088.34;;;-3.61;82.32
41800;BME280;27468;47.460;19.034;2022-12-18T04:23:17;102127.19;;;-3.45;82.53
41800;BME280;27468;47.460;19.034;2022-12-18T04:25:42;102100.66;;;-3.57;82.08
41800;BME280;27468;47.460;19.034;2022-12-18T04:28:08;102093.31;;;-3.64;82.11
41800;BME280;27468;47.460;19.034;2022-12-18T04:30:33;102133.97;;;-3.47;82.15
41800;BME280;27468;47.460;19.034;2022-12-18T04:32:59;102064.16;;;-3.90;82.03
41800;BME280;27468;47.460;19.034;2022-12-18T04:35:24;102118.28;;;-3.63;82.31
41800;BME280;27468;47.460;19.034;2022-12-18T04:37:50;102121.66;;;-3.64;82.22
41800;BME280;27468;47.460;19.034;2022-12-18T04:40:15;102090.13;;;-3.87;82.47
41800;BME280;27468;47.460;19.034;2022-12-18T04:42:41;102106.09;;;-3.79;82.44
41800;BME280;27468;47.460;19.034;2022-12-18T04:45:07;102145.06;;;-3.61;82.09
41800;BME280;27468;47.460;19.034;2022-12-18T04:47:32;102151.91;;;-3.62;82.69
41800;BME280;27468;47.460;19.034;2022-12-18T04:49:58;102128.78;;;-3.74;82.47
41800;BME280;27468;47.460;19.034;2022-12-18T04:52:23;102168.34;;;-3.60;82.39
41800;BME280;27468;47.460;19.034;2022-12-18T04:54:49;102101.50;;;-3.96;82.57
41800;BME280;27468;47.460;19.034;2022-12-18T04:57:14;102140.69;;;-3.76;82.47
41800;BME280;27468;47.460;19.034;2022-12-18T04:59:40;102129.38;;;-3.78;82.56
41800;BME280;27468;47.460;19.034;2022-12-18T05:02:05;102171.03;;;-3.58;82.77
41800;BME280;27468;47.460;19.034;2022-12-18T05:04:30;102128.47;;;-3.78;82.51
41800;BME280;27468;47.460;19.034;2022-12-18T05:06:56;102167.84;;;-3.68;82.74
41800;BME280;27468;47.460;19.034;2022-12-18T05:09:23;102117.75;;;-3.97;82.51
41800;BME280;27468;47.460;19.034;2022-12-18T05:11:48;102171.91;;;-3.71;82.74
41800;BME280;27468;47.460;19.034;2022-12-18T05:14:13;102166.56;;;-3.74;82.38
41800;BME280;27468;47.460;19.034;2022-12-18T05:16:39;102196.41;;;-3.64;82.81
41800;BME280;27468;47.460;19.034;2022-12-18T05:19:04;102136.88;;;-3.94;82.62
41800;BME280;27468;47.460;19.034;2022-12-18T05:21:29;102174.50;;;-3.71;82.54
41800;BME280;27468;47.460;19.034;2022-12-18T05:23:55;102169.63;;;-3.80;82.52
41800;BME280;27468;47.460;19.034;2022-12-18T05:26:20;102189.44;;;-3.79;82.54
41800;BME280;27468;47.460;19.034;2022-12-18T05:28:46;102202.63;;;-3.74;82.48
41800;BME280;27468;47.460;19.034;2022-12-18T05:31:11;102201.75;;;-3.75;82.44
41800;BME280;27468;47.460;19.034;2022-12-18T05:33:37;102151.56;;;-4.06;82.40
41800;BME280;27468;47.460;19.034;2022-12-18T05:36:05;102209.16;;;-3.79;82.55
41800;BME280;27468;47.460;19.034;2022-12-18T05:38:32;102202.91;;;-3.83;82.74
41800;BME280;27468;47.460;19.034;2022-12-18T05:40:58;102206.38;;;-3.82;82.96
41800;BME280;27468;47.460;19.034;2022-12-18T05:43:24;102187.31;;;-3.97;82.93
41800;BME280;27468;47.460;19.034;2022-12-18T05:45:51;102154.97;;;-4.19;82.70
41800;BME280;27468;47.460;19.034;2022-12-18T05:48:17;102163.69;;;-4.17;82.70
41800;BME280;27468;47.460;19.034;2022-12-18T05:50:44;102214.69;;;-3.86;82.82
41800;BME280;27468;47.460;19.034;2022-12-18T05:53:14;102206.13;;;-3.99;82.92
41800;BME280;27468;47.460;19.034;2022-12-18T05:55:42;102170.31;;;-4.20;83.28
41800;BME280;27468;47.460;19.034;2022-12-18T05:58:09;102169.53;;;-4.19;82.74
41800;BME280;27468;47.460;19.034;2022-12-18T06:00:37;102226.25;;;-3.93;83.30
41800;BME280;27468;47.460;19.034;2022-12-18T06:03:06;102223.22;;;-3.87;83.09
41800;BME280;27468;47.460;19.034;2022-12-18T06:05:36;102231.72;;;-3.88;83.01
41800;BME280;27468;47.460;19.034;2022-12-18T06:08:02;102221.47;;;-4.00;82.99
41800;BME280;27468;47.460;19.034;2022-12-18T06:10:27;102245.09;;;-3.94;83.06
41800;BME280;27468;47.460;19.034;2022-12-18T06:12:53;102221.28;;;-4.03;83.24
41800;BME280;27468;47.460;19.034;2022-12-18T06:15:18;102226.44;;;-4.03;83.09
41800;BME280;27468;47.460;19.034;2022-12-18T06:17:44;102221.19;;;-4.05;83.00
41800;BME280;27468;47.460;19.034;2022-12-18T06:20:09;102193.72;;;-4.17;83.12
41800;BME280;27468;47.460;19.034;2022-12-18T06:22:34;102221.47;;;-4.13;83.44
41800;BME280;27468;47.460;19.034;2022-12-18T06:25:00;102255.75;;;-4.01;83.34
41800;BME280;27468;47.460;19.034;2022-12-18T06:27:26;102188.09;;;-4.37;83.43
41800;BME280;27468;47.460;19.034;2022-12-18T06:29:51;102225.31;;;-4.20;83.40
41800;BME280;27468;47.460;19.034;2022-12-18T06:32:17;102245.53;;;-4.13;83.11
41800;BME280;27468;47.460;19.034;2022-12-18T06:34:42;102246.31;;;-4.14;83.21
41800;BME280;27468;47.460;19.034;2022-12-18T06:37:07;102271.91;;;-4.04;83.48
41800;BME280;27468;47.460;19.034;2022-12-18T06:39:33;102277.38;;;-3.99;83.33
41800;BME280;27468;47.460;19.034;2022-12-18T06:41:58;102197.75;;;-4.46;83.40
41800;BME280;27468;47.460;19.034;2022-12-18T06:44:24;102246.47;;;-4.24;83.58
41800;BME280;27468;47.460;19.034;2022-12-18T06:46:49;102247.69;;;-4.19;83.07
41800;BME280;27468;47.460;19.034;2022-12-18T06:49:14;102262.00;;;-4.11;83.26
41800;BME280;27468;47.460;19.034;2022-12-18T06:51:41;102276.88;;;-4.07;83.38
41800;BME280;27468;47.460;19.034;2022-12-18T06:54:07;102275.28;;;-4.05;83.05
41800;BME280;27468;47.460;19.034;2022-12-18T06:56:32;102284.19;;;-4.00;83.12
41800;BME280;27468;47.460;19.034;2022-12-18T06:58:57;102302.44;;;-3.96;82.93
41800;BME280;27468;47.460;19.034;2022-12-18T07:01:23;102304.81;;;-4.00;82.99
41800;BME280;27468;47.460;19.034;2022-12-18T07:03:55;102313.28;;;-3.89;82.74
41800;BME280;27468;47.460;19.034;2022-12-18T07:06:23;102314.06;;;-3.90;82.79
41800;BME280;27468;47.460;19.034;2022-12-18T07:08:50;102320.22;;;-3.88;82.89
41800;BME280;27468;47.460;19.034;2022-12-18T07:11:17;102320.22;;;-3.88;82.49
41800;BME280;27468;47.460;19.034;2022-12-18T07:13:43;102308.06;;;-4.02;82.65
41800;BME280;27468;47.460;19.034;2022-12-18T07:16:14;102336.91;;;-3.83;82.63
41800;BME280;27468;47.460;19.034;2022-12-18T07:18:40;102332.53;;;-3.84;82.54
41800;BME280;27468;47.460;19.034;2022-12-18T07:21:07;102345.84;;;-3.78;82.36
41800;BME280;27468;47.460;19.034;2022-12-18T07:23:34;102345.28;;;-3.74;82.58
41800;BME280;27468;47.460;19.034;2022-12-18T07:26:07;102311.59;;;-3.88;82.32
41800;BME280;27468;47.460;19.034;2022-12-18T07:28:34;102309.59;;;-3.92;82.34
41800;BME280;27468;47.460;19.034;2022-12-18T07:31:04;102314.75;;;-3.92;82.14
41800;BME280;27468;47.460;19.034;2022-12-18T07:33:29;102317.13;;;-3.95;82.31
41800;BME280;27468;47.460;19.034;2022-12-18T07:35:55;102363.47;;;-3.59;82.13
41800;BME280;27468;47.460;19.034;2022-12-18T07:38:21;102346.38;;;-3.70;82.31
41800;BME280;27468;47.460;19.034;2022-12-18T07:40:47;102321.75;;;-3.78;82.13
41800;BME280;27468;47.460;19.034;2022-12-18T07:43:12;102376.31;;;-3.47;82.31
41800;BME280;27468;47.460;19.034;2022-12-18T07:45:38;102382.06;;;-3.51;82.30
41800;BME280;27468;47.460;19.034;2022-12-18T07:48:04;102299.28;;;-3.92;82.23
41800;BME280;27468;47.460;19.034;2022-12-18T07:50:30;102365.69;;;-3.52;82.28
41800;BME280;27468;47.460;19.034;2022-12-18T07:52:55;102390.59;;;-3.39;82.30
41800;BME280;27468;47.460;19.034;2022-12-18T07:55:21;102366.81;;;-3.48;82.39
41800;BME280;27468;47.460;19.034;2022-12-18T07:57:46;102380.06;;;-3.42;82.13
41800;BME280;27468;47.460;19.034;2022-12-18T08:00:12;102356.97;;;-3.54;82.36
41800;BME280;27468;47.460;19.034;2022-12-18T08:02:38;102409.50;;;-3.27;82.42
41800;BME280;27468;47.460;19.034;2022-12-18T08:05:04;102357.38;;;-3.48;81.94
41800;BME280;27468;47.460;19.034;2022-12-18T08:07:29;102419.66;;;-3.17;81.93
41800;BME280;27468;47.460;19.034;2022-12-18T08:09:55;102414.19;;;-3.21;81.89
41800;BME280;27468;47.460;19.034;2022-12-18T08:12:20;102377.56;;;-3.29;81.80
41800;BME280;27468;47.460;19.034;2022-12-18T08:14:45;102417.91;;;-3.05;81.83
41800;BME280;27468;47.460;19.034;2022-12-18T08:17:11;102353.03;;;-3.36;81.63
41800;BME280;27468;47.460;19.034;2022-12-18T08:19:36;102387.91;;;-3.16;81.52
41800;BME280;27468;47.460;19.034;2022-12-18T08:22:02;102387.94;;;-3.03;81.73
41800;BME280;27468;47.460;19.034;2022-12-18T08:24:27;102415.06;;;-2.83;81.59
41800;BME280;27468;47.460;19.034;2022-12-18T08:26:52;102348.91;;;-3.20;81.20
41800;BME280;27468;47.460;19.034;2022-12-18T08:29:18;102359.16;;;-3.09;81.37
41800;BME280;27468;47.460;19.034;2022-12-18T08:31:43;102355.88;;;-3.06;81.29
41800;BME280;27468;47.460;19.034;2022-12-18T08:34:09;102410.50;;;-2.74;81.23
41800;BME280;27468;47.460;19.034;2022-12-18T08:36:34;102396.50;;;-2.77;81.07
41800;BME280;27468;47.460;19.034;2022-12-18T08:39:00;102432.88;;;-2.61;80.97
41800;BME280;27468;47.460;19.034;2022-12-18T08:41:26;102441.72;;;-2.44;81.11
41800;BME280;27468;47.460;19.034;2022-12-18T08:43:51;102395.13;;;-2.59;81.03
41800;BME280;27468;47.460;19.034;2022-12-18T08:46:38;102381.81;;;-2.65;80.63
41800;BME280;27468;47.460;19.034;2022-12-18T08:49:05;102433.44;;;-2.25;80.56
41800;BME280;27468;47.460;19.034;2022-12-18T08:51:31;102440.72;;;-2.20;81.21
41800;BME280;27468;47.460;19.034;2022-12-18T08:53:56;102434.53;;;-2.22;80.95
41800;BME280;27468;47.460;19.034;2022-12-18T08:56:22;102383.31;;;-2.42;80.87
41800;BME280;27468;47.460;19.034;2022-12-18T08:58:51;102392.56;;;-2.33;80.86
41800;BME280;27468;47.460;19.034;2022-12-18T09:01:17;102440.09;;;-2.03;80.94
41800;BME280;27468;47.460;19.034;2022-12-18T09:03:42;102440.31;;;-2.00;81.06
41800;BME280;27468;47.460;19.034;2022-12-18T09:06:08;102407.22;;;-2.18;80.80
41800;BME280;27468;47.460;19.034;2022-12-18T09:08:33;102411.97;;;-2.11;80.05
41800;BME280;27468;47.460;19.034;2022-12-18T09:10:59;102397.97;;;-2.15;80.70
41800;BME280;27468;47.460;19.034;2022-12-18T09:13:24;102467.28;;;-1.68;80.25
41800;BME280;27468;47.460;19.034;2022-12-18T09:15:54;102441.22;;;-1.71;80.30
41800;BME280;27468;47.460;19.034;2022-12-18T09:18:21;102466.75;;;-1.62;79.96
41800;BME280;27468;47.460;19.034;2022-12-18T09:20:47;102459.59;;;-1.53;79.64
41800;BME280;27468;47.460;19.034;2022-12-18T09:23:12;102454.97;;;-1.44;79.76
41800;BME280;27468;47.460;19.034;2022-12-18T09:25:38;102443.63;;;-1.46;78.84
41800;BME280;27468;47.460;19.034;2022-12-18T09:28:09;102401.13;;;-1.64;78.94
41800;BME280;27468;47.460;19.034;2022-12-18T09:30:40;102418.47;;;-1.49;78.92
41800;BME280;27468;47.460;19.034;2022-12-18T09:33:06;102425.13;;;-1.39;78.71
41800;BME280;27468;47.460;19.034;2022-12-18T09:35:32;102452.31;;;-1.18;78.29
41800;BME280;27468;47.460;19.034;2022-12-18T09:37:57;102400.13;;;-1.39;78.44
41800;BME280;27468;47.460;19.034;2022-12-18T09:40:25;102388.63;;;-1.44;77.66
41800;BME280;27468;47.460;19.034;2022-12-18T09:42:57;102389.97;;;-1.36;77.68
41800;BME280;27468;47.460;19.034;2022-12-18T09:45:24;102407.13;;;-1.23;77.61
41800;BME280;27468;47.460;19.034;2022-12-18T09:47:52;102401.34;;;-1.19;77.15
41800;BME280;27468;47.460;19.034;2022-12-18T09:50:29;102447.34;;;-0.85;77.07
41800;BME280;27468;47.460;19.034;2022-12-18T09:52:58;102406.94;;;-1.11;76.70
41800;BME280;27468;47.460;19.034;2022-12-18T09:55:37;102403.91;;;-1.04;76.64
41800;BME280;27468;47.460;19.034;2022-12-18T09:58:15;102426.78;;;-0.82;76.42
41800;BME280;27468;47.460;19.034;2022-12-18T10:00:42;102387.69;;;-1.02;76.12
41800;BME280;27468;47.460;19.034;2022-12-18T10:03:12;102447.16;;;-0.59;75.77
41800;BME280;27468;47.460;19.034;2022-12-18T10:08:51;102394.66;;;-0.71;75.92
41800;BME280;27468;47.460;19.034;2022-12-18T10:11:36;102448.66;;;-0.33;75.98
41800;BME280;27468;47.460;19.034;2022-12-18T10:14:23;102442.94;;;-0.27;75.53
41800;BME280;27468;47.460;19.034;2022-12-18T10:17:00;102399.34;;;-0.49;75.26
41800;BME280;27468;47.460;19.034;2022-12-18T10:19:39;102427.28;;;-0.29;75.12
41800;BME280;27468;47.460;19.034;2022-12-18T10:22:26;102450.94;;;-0.08;74.48
41800;BME280;27468;47.460;19.034;2022-12-18T10:25:02;102411.19;;;-0.23;73.50
41800;BME280;27468;47.460;19.034;2022-12-18T10:27:29;102439.22;;;-0.02;72.79
41800;BME280;27468;47.460;19.034;2022-12-18T10:29:55;102357.34;;;-0.44;72.41
41800;BME280;27468;47.460;19.034;2022-12-18T10:32:24;102349.75;;;-0.41;71.86
41800;BME280;27468;47.460;19.034;2022-12-18T10:34:53;102434.94;;;0.15;71.92
41800;BME280;27468;47.460;19.034;2022-12-18T10:37:24;102429.91;;;0.18;71.50
41800;BME280;27468;47.460;19.034;2022-12-18T10:40:14;102382.25;;;0.00;70.66
41800;BME280;27468;47.460;19.034;2022-12-18T10:42:40;102415.75;;;0.28;70.83
41800;BME280;27468;47.460;19.034;2022-12-18T10:47:35;102438.41;;;0.47;70.20
41800;BME280;27468;47.460;19.034;2022-12-18T10:50:01;102419.66;;;0.36;69.64
41800;BME280;27468;47.460;19.034;2022-12-18T10:52:27;102376.69;;;0.25;68.90
41800;BME280;27468;47.460;19.034;2022-12-18T10:54:54;102391.19;;;0.38;68.74
41800;BME280;27468;47.460;19.034;2022-12-18T10:57:39;102426.13;;;0.60;67.76
41800;BME280;27468;47.460;19.034;2022-12-18T11:00:28;102382.69;;;0.40;67.49
41800;BME280;27468;47.460;19.034;2022-12-18T11:02:55;102370.53;;;0.39;67.27
41800;BME280;27468;47.460;19.034;2022-12-18T11:05:31;102381.47;;;0.50;67.39
41800;BME280;27468;47.460;19.034;2022-12-18T11:07:59;102363.31;;;0.50;66.48
41800;BME280;27468;47.460;19.034;2022-12-18T11:10:33;102382.41;;;0.68;66.86
41800;BME280;27468;47.460;19.034;2022-12-18T11:13:20;102340.84;;;0.50;66.37
41800;BME280;27468;47.460;19.034;2022-12-18T11:15:46;102383.47;;;0.72;65.35
41800;BME280;27468;47.460;19.034;2022-12-18T11:21:15;102348.66;;;0.68;64.52
41800;BME280;27468;47.460;19.034;2022-12-18T11:23:49;102366.16;;;0.88;65.33
41800;BME280;27468;47.460;19.034;2022-12-18T11:26:15;102422.16;;;1.17;65.32
41800;BME280;27468;47.460;19.034;2022-12-18T11:28:52;102403.09;;;1.17;65.94
41800;BME280;27468;47.460;19.034;2022-12-18T11:31:32;102408.38;;;1.18;65.38
41800;BME280;27468;47.460;19.034;2022-12-18T11:36:42;102404.69;;;1.31;63.88
41800;BME280;27468;47.460;19.034;2022-12-18T11:41:54;102403.50;;;1.42;63.29
41800;BME280;27468;47.460;19.034;2022-12-18T11:44:57;102360.28;;;1.26;63.18
41800;BME280;27468;47.460;19.034;2022-12-18T11:47:44;102402.03;;;1.47;62.78
41800;BME280;27468;47.460;19.034;2022-12-18T11:50:21;102388.44;;;1.53;63.26
41800;BME280;27468;47.460;19.034;2022-12-18T11:52:48;102349.38;;;1.33;63.09
41800;BME280;27468;47.460;19.034;2022-12-18T11:55:18;102336.22;;;1.30;63.29
41800;BME280;27468;47.460;19.034;2022-12-18T12:00:21;102391.56;;;1.63;61.97
41800;BME280;27468;47.460;19.034;2022-12-18T12:12:02;102385.38;;;1.79;63.35
41800;BME280;27468;47.460;19.034;2022-12-18T12:20:11;102382.31;;;1.88;62.73
41800;BME280;27468;47.460;19.034;2022-12-18T12:26:10;102378.16;;;1.91;63.11
41800;BME280;27468;47.460;19.034;2022-12-18T12:28:44;102331.69;;;1.62;62.64
41800;BME280;27468;47.460;19.034;2022-12-18T12:39:34;102399.31;;;1.99;62.70
41800;BME280;27468;47.460;19.034;2022-12-18T12:42:04;102372.94;;;1.91;62.91
41800;BME280;27468;47.460;19.034;2022-12-18T12:44:55;102358.75;;;1.85;62.90
41800;BME280;27468;47.460;19.034;2022-12-18T12:47:26;102404.75;;;2.04;63.00
41800;BME280;27468;47.460;19.034;2022-12-18T12:49:54;102393.22;;;1.98;62.90
41800;BME280;27468;47.460;19.034;2022-12-18T12:52:34;102389.81;;;1.99;62.93
41800;BME280;27468;47.460;19.034;2022-12-18T12:55:04;102358.22;;;1.73;62.69
41800;BME280;27468;47.460;19.034;2022-12-18T13:00:06;102417.09;;;2.08;62.83
41800;BME280;27468;47.460;19.034;2022-12-18T13:05:28;102349.56;;;1.74;62.89
41800;BME280;27468;47.460;19.034;2022-12-18T13:08:01;102418.41;;;2.17;62.99
41800;BME280;27468;47.460;19.034;2022-12-18T13:10:33;102404.22;;;2.11;63.04
41800;BME280;27468;47.460;19.034;2022-12-18T13:15:46;102408.91;;;2.00;63.22
41800;BME280;27468;47.460;19.034;2022-12-18T13:18:22;102378.75;;;1.86;63.65
41800;BME280;27468;47.460;19.034;2022-12-18T13:25:55;102415.97;;;2.03;63.46
41800;BME280;27468;47.460;19.034;2022-12-18T13:30:55;102389.97;;;1.85;63.33
41800;BME280;27468;47.460;19.034;2022-12-18T13:33:36;102440.56;;;2.09;63.75
41800;BME280;27468;47.460;19.034;2022-12-18T13:36:16;102419.03;;;1.94;63.43
41800;BME280;27468;47.460;19.034;2022-12-18T13:38:43;102435.75;;;1.99;63.82
41800;BME280;27468;47.460;19.034;2022-12-18T13:43:42;102378.66;;;1.65;63.62
41800;BME280;27468;47.460;19.034;2022-12-18T13:49:19;102398.97;;;1.74;63.53
41800;BME280;27468;47.460;19.034;2022-12-18T13:51:54;102439.53;;;1.88;63.75
41800;BME280;27468;47.460;19.034;2022-12-18T13:54:42;102425.41;;;1.83;63.90
41800;BME280;27468;47.460;19.034;2022-12-18T13:57:43;102456.84;;;1.87;63.70
41800;BME280;27468;47.460;19.034;2022-12-18T14:00:27;102458.41;;;1.84;63.85
41800;BME280;27468;47.460;19.034;2022-12-18T14:02:54;102460.78;;;1.79;64.12
41800;BME280;27468;47.460;19.034;2022-12-18T14:05:36;102416.00;;;1.49;64.41
41800;BME280;27468;47.460;19.034;2022-12-18T14:08:10;102440.59;;;1.56;64.00
41800;BME280;27468;47.460;19.034;2022-12-18T14:10:41;102433.28;;;1.49;64.24
41800;BME280;27468;47.460;19.034;2022-12-18T14:13:09;102465.19;;;1.62;64.22
41800;BME280;27468;47.460;19.034;2022-12-18T14:15:39;102450.44;;;1.45;64.13
41800;BME280;27468;47.460;19.034;2022-12-18T14:20:56;102465.31;;;1.48;63.75
41800;BME280;27468;47.460;19.034;2022-12-18T14:23:39;102420.53;;;1.19;63.93
41800;BME280;27468;47.460;19.034;2022-12-18T14:26:25;102417.94;;;1.19;64.08
41800;BME280;27468;47.460;19.034;2022-12-18T14:28:53;102411.56;;;1.13;63.92
41800;BME280;27468;47.460;19.034;2022-12-18T14:31:25;102465.66;;;1.38;64.17
41800;BME280;27468;47.460;19.034;2022-12-18T14:33:51;102456.09;;;1.20;64.25
41800;BME280;27468;47.460;19.034;2022-12-18T14:36:22;102466.66;;;1.23;64.63
41800;BME280;27468;47.460;19.034;2022-12-18T14:38:50;102452.25;;;1.12;64.79